createdAt,value
2022-12-18T00:01:30.959Z,38.13
2022-12-18T00:03:58.173Z,41.97
2022-12-18T00:06:27.693Z,38.85
2022-12-18T00:08:55.295Z,40.83
2022-12-18T00:11:23.710Z,37.92
2022-12-18T00:13:51.009Z,39.15
2022-12-18T00:16:21.641Z,36.95
2022-12-18T00:18:52.390Z,36.60
2022-12-18T00:21:20.606Z,41.28
2022-12-18T00:23:48.436Z,39.35
2022-12-18T00:26:36.328Z,37.08
2022-12-18T00:29:16.302Z,38.83
2022-12-18T00:31:43.541Z,34.00
2022-12-18T00:34:12.607Z,39.35
2022-12-18T00:36:39.834Z,35.88
2022-12-18T00:39:06.638Z,35.17
2022-12-18T00:41:33.051Z,34.60
2022-12-18T00:43:59.365Z,38.67
2022-12-18T00:46:25.680Z,33.72
2022-12-18T00:48:52.020Z,36.30
2022-12-18T00:51:18.378Z,34.50
2022-12-18T00:53:44.687Z,35.50
2022-12-18T00:56:11.033Z,32.17
2022-12-18T00:58:37.361Z,35.55
2022-12-18T01:01:05.864Z,41.00
2022-12-18T01:03:32.221Z,38.72
2022-12-18T01:05:58.590Z,38.13
2022-12-18T01:08:25.153Z,32.88
2022-12-18T01:10:51.769Z,35.70
2022-12-18T01:13:18.101Z,38.08
2022-12-18T01:15:51.395Z,34.00
2022-12-18T01:18:17.793Z,34.53
2022-12-18T01:20:44.245Z,32.58
2022-12-18T01:23:10.610Z,34.33
2022-12-18T01:25:37.379Z,41.60
2022-12-18T01:28:04.012Z,34.80
2022-12-18T01:30:30.357Z,38.50
2022-12-18T01:32:56.668Z,36.58
2022-12-18T01:35:23.009Z,38.72
2022-12-18T01:37:49.396Z,32.35
2022-12-18T01:40:15.775Z,39.38
2022-12-18T01:42:42.108Z,37.38
2022-12-18T01:45:14.396Z,35.97
2022-12-18T01:47:46.681Z,40.03
2022-12-18T01:50:21.990Z,38.03
2022-12-18T01:53:19.468Z,41.47
2022-12-18T01:55:59.218Z,35.35
2022-12-18T01:58:34.746Z,36.58
2022-12-18T02:01:01.118Z,35.92
2022-12-18T02:03:27.510Z,36.58
2022-12-18T02:06:16.041Z,35.90
2022-12-18T02:09:08.672Z,39.60
2022-12-18T02:11:45.864Z,36.90
2022-12-18T02:14:29.049Z,37.45
2022-12-18T02:17:06.171Z,32.33
2022-12-18T02:19:44.165Z,35.35
2022-12-18T02:22:29.275Z,43.58
2022-12-18T02:25:12.157Z,37.22
2022-12-18T02:27:40.097Z,38.35
2022-12-18T02:30:08.153Z,38.53
2022-12-18T02:32:40.677Z,37.33
2022-12-18T02:35:11.590Z,39.15
2022-12-18T02:37:41.551Z,38.58
2022-12-18T02:40:09.584Z,35.28
2022-12-18T02:42:35.923Z,36.33
2022-12-18T02:45:02.403Z,36.30
2022-12-18T02:47:33.212Z,33.72
2022-12-18T02:50:33.080Z,34.22
2022-12-18T02:53:15.781Z,39.15
2022-12-18T02:56:06.120Z,42.13
2022-12-18T02:58:59.687Z,37.75
2022-12-18T03:01:36.603Z,40.55
2022-12-18T03:04:23.341Z,36.83
2022-12-18T03:06:52.204Z,37.55
2022-12-18T03:09:39.216Z,38.72
2022-12-18T03:12:17.698Z,37.38
2022-12-18T03:14:46.211Z,38.05
2022-12-18T03:17:17.435Z,40.05
2022-12-18T03:19:45.544Z,33.92
2022-12-18T03:22:12.268Z,42.40
2022-12-18T03:24:38.952Z,44.08
2022-12-18T03:27:10.395Z,40.65
2022-12-18T03:29:53.580Z,34.65
2022-12-18T03:32:26.850Z,40.03
2022-12-18T03:34:58.444Z,39.65
2022-12-18T03:37:25.058Z,36.13
2022-12-18T03:39:51.488Z,43.72
2022-12-18T03:42:33.564Z,40.03
2022-12-18T03:45:11.075Z,37.08
2022-12-18T03:47:52.361Z,37.60
2022-12-18T03:50:26.833Z,36.40
2022-12-18T03:53:01.266Z,32.25
2022-12-18T03:55:32.262Z,34.05
2022-12-18T03:58:00.646Z,37.72
2022-12-18T04:00:27.625Z,35.50
2022-12-18T04:02:56.314Z,40.10
2022-12-18T04:05:25.145Z,35.78
2022-12-18T04:07:53.254Z,35.65
2022-12-18T04:10:19.740Z,35.13
2022-12-18T04:12:46.095Z,35.35
2022-12-18T04:15:14.255Z,34.40
2022-12-18T04:17:48.705Z,34.58
2022-12-18T04:20:15.314Z,36.92
2022-12-18T04:22:41.637Z,39.45
2022-12-18T04:25:08.423Z,33.17
2022-12-18T04:27:34.980Z,38.47
2022-12-18T04:30:01.440Z,34.85
2022-12-18T04:32:27.773Z,35.80
2022-12-18T04:34:54.078Z,31.52
2022-12-18T04:37:20.505Z,39.38
2022-12-18T04:39:46.883Z,37.47
2022-12-18T04:42:13.235Z,33.75
2022-12-18T04:44:39.536Z,33.40
2022-12-18T04:47:05.868Z,41.85
2022-12-18T04:49:32.182Z,33.47
2022-12-18T04:51:58.514Z,39.42
2022-12-18T04:54:24.841Z,42.95
2022-12-18T04:56:51.172Z,37.70
2022-12-18T04:59:17.539Z,38.28
2022-12-18T05:01:44.038Z,33.20
2022-12-18T05:04:11.024Z,33.85
2022-12-18T05:06:37.486Z,35.55
2022-12-18T05:09:04.112Z,37.90
2022-12-18T05:11:30.488Z,33.20
2022-12-18T05:13:56.818Z,36.28
2022-12-18T05:16:23.231Z,34.65
2022-12-18T05:18:49.580Z,35.30
2022-12-18T05:21:15.952Z,38.42
2022-12-18T05:23:42.764Z,34.40
2022-12-18T05:26:09.773Z,37.15
2022-12-18T05:28:37.009Z,35.80
2022-12-18T05:31:06.059Z,38.45
2022-12-18T05:33:35.135Z,33.13
2022-12-18T05:36:04.963Z,37.85
2022-12-18T05:38:33.230Z,36.80
2022-12-18T05:40:59.817Z,37.30
2022-12-18T05:43:27.377Z,40.72
2022-12-18T05:45:54.786Z,42.67
2022-12-18T05:48:22.147Z,40.22
2022-12-18T05:50:50.617Z,38.60
2022-12-18T05:53:19.590Z,35.08
2022-12-18T05:55:46.608Z,36.13
2022-12-18T05:58:14.080Z,38.10
2022-12-18T06:00:42.881Z,36.33
2022-12-18T06:03:11.619Z,39.22
2022-12-18T06:05:39.616Z,42.40
2022-12-18T06:08:06.097Z,37.35
2022-12-18T06:10:32.555Z,40.53
2022-12-18T06:12:59.138Z,39.17
2022-12-18T06:15:25.501Z,35.63
2022-12-18T06:17:52.117Z,39.60
2022-12-18T06:20:18.657Z,40.45
2022-12-18T06:22:45.245Z,36.25
2022-12-18T06:25:11.873Z,42.97
2022-12-18T06:27:38.267Z,40.17
2022-12-18T06:30:05.606Z,37.30
2022-12-18T06:32:31.953Z,33.97
2022-12-18T06:34:58.565Z,34.03
2022-12-18T06:37:24.911Z,37.17
2022-12-18T06:39:51.212Z,36.95
2022-12-18T06:42:17.525Z,39.28
2022-12-18T06:44:43.852Z,34.70
2022-12-18T06:47:10.252Z,34.40
2022-12-18T06:49:36.556Z,38.85
2022-12-18T06:52:03.027Z,34.63
2022-12-18T06:54:29.361Z,32.50
2022-12-18T06:56:55.709Z,36.97
2022-12-18T06:59:22.053Z,37.22
2022-12-18T07:01:48.557Z,36.50
2022-12-18T07:04:14.999Z,41.83
2022-12-18T07:06:41.333Z,37.70
2022-12-18T07:09:07.670Z,35.42
2022-12-18T07:11:34.365Z,36.90
2022-12-18T07:14:00.780Z,34.30
2022-12-18T07:16:27.372Z,39.88
2022-12-18T07:18:55.610Z,35.22
2022-12-18T07:21:22.898Z,35.83
2022-12-18T07:23:49.606Z,33.00
2022-12-18T07:26:18.871Z,33.67
2022-12-18T07:28:45.336Z,32.60
2022-12-18T07:31:18.964Z,32.25
2022-12-18T07:33:46.488Z,26.73
2022-12-18T07:36:13.518Z,43.22
2022-12-18T07:38:40.482Z,35.58
2022-12-18T07:41:10.042Z,39.22
2022-12-18T07:43:37.820Z,33.70
2022-12-18T07:46:04.990Z,37.33
2022-12-18T07:48:31.701Z,39.55
2022-12-18T07:51:06.760Z,38.35
2022-12-18T07:53:34.276Z,34.08
2022-12-18T07:56:29.420Z,34.70
2022-12-18T07:58:49.105Z,33.47
2022-12-18T08:01:15.626Z,39.10
2022-12-18T08:03:42.328Z,35.88
2022-12-18T08:06:10.768Z,30.88
2022-12-18T08:08:37.437Z,35.70
2022-12-18T08:11:04.039Z,41.35
2022-12-18T08:13:30.487Z,35.70
2022-12-18T08:15:57.750Z,33.15
2022-12-18T08:18:24.166Z,32.20
2022-12-18T08:20:50.610Z,30.10
2022-12-18T08:23:16.967Z,34.40
2022-12-18T08:25:43.308Z,31.70
2022-12-18T08:28:09.660Z,34.65
2022-12-18T08:30:36.550Z,33.58
2022-12-18T08:33:04.853Z,27.38
2022-12-18T08:35:36.351Z,30.50
2022-12-18T08:38:04.565Z,31.45
2022-12-18T08:40:30.925Z,30.23
2022-12-18T08:42:57.258Z,32.38
2022-12-18T08:45:23.582Z,29.92
2022-12-18T08:47:49.890Z,31.83
2022-12-18T08:50:16.301Z,40.75
2022-12-18T08:52:42.616Z,31.02
2022-12-18T08:55:09.844Z,28.55
2022-12-18T08:57:36.162Z,31.08
2022-12-18T09:00:02.772Z,30.25
2022-12-18T09:02:29.228Z,31.92
2022-12-18T09:04:57.734Z,27.77
2022-12-18T09:07:24.273Z,33.30
2022-12-18T09:09:50.595Z,28.80
2022-12-18T09:12:16.945Z,28.13
2022-12-18T09:14:43.373Z,27.83
2022-12-18T09:17:09.740Z,31.17
2022-12-18T09:19:36.149Z,30.85
2022-12-18T09:22:02.466Z,30.20
2022-12-18T09:24:28.814Z,28.83
2022-12-18T09:26:57.787Z,29.50
2022-12-18T09:29:24.533Z,28.75
2022-12-18T09:31:50.886Z,28.83
2022-12-18T09:34:17.473Z,22.75
2022-12-18T09:36:43.957Z,25.83
2022-12-18T09:39:10.315Z,22.55
2022-12-18T09:41:47.503Z,25.90
2022-12-18T09:44:28.013Z,23.38
2022-12-18T09:47:06.947Z,26.00
2022-12-18T09:49:37.309Z,22.60
2022-12-18T09:52:20.207Z,23.13
2022-12-18T09:54:59.679Z,22.30
2022-12-18T09:57:26.158Z,26.42
2022-12-18T10:00:24.440Z,18.92
2022-12-18T10:03:00.864Z,20.80
2022-12-18T10:05:51.726Z,20.25
2022-12-18T10:08:22.840Z,24.42
2022-12-18T10:10:53.581Z,23.73
2022-12-18T10:13:35.089Z,23.95
2022-12-18T10:16:01.395Z,25.38
2022-12-18T10:18:34.424Z,19.55
2022-12-18T10:21:10.902Z,23.23
2022-12-18T10:24:03.438Z,22.33
2022-12-18T10:26:32.253Z,19.55
2022-12-18T10:29:05.358Z,17.05
2022-12-18T10:31:32.173Z,18.48
2022-12-18T10:33:58.587Z,18.45
2022-12-18T10:36:25.925Z,18.20
2022-12-18T10:38:52.242Z,17.60
2022-12-18T10:41:18.516Z,18.83
2022-12-18T10:43:45.064Z,25.83
2022-12-18T10:46:11.376Z,16.33
2022-12-18T10:48:57.804Z,18.80
2022-12-18T10:51:32.679Z,17.90
2022-12-18T10:54:06.242Z,18.65
2022-12-18T10:56:35.620Z,20.88
2022-12-18T10:59:03.266Z,17.38
2022-12-18T11:01:56.241Z,18.73
2022-12-18T11:04:26.519Z,15.95
2022-12-18T11:07:01.607Z,16.15
2022-12-18T11:09:31.147Z,20.25
2022-12-18T11:12:00.462Z,20.38
2022-12-18T11:14:46.555Z,19.02
2022-12-18T11:17:29.853Z,19.27
2022-12-18T11:19:58.981Z,17.27
2022-12-18T11:22:34.694Z,18.05
2022-12-18T11:28:26.409Z,18.02
2022-12-18T11:31:19.003Z,22.40
2022-12-18T11:34:19.746Z,16.00
2022-12-18T11:36:43.833Z,21.63
2022-12-18T11:39:19.067Z,19.38
2022-12-18T11:41:57.121Z,17.75
2022-12-18T11:44:32.654Z,20.63
2022-12-18T11:47:10.427Z,20.23
2022-12-18T11:49:37.139Z,16.15
2022-12-18T11:52:14.184Z,20.60
2022-12-18T11:54:40.504Z,19.98
2022-12-18T11:57:34.062Z,21.05
2022-12-18T12:00:17.658Z,16.05
2022-12-18T12:03:00.156Z,20.23
2022-12-18T12:05:55.779Z,18.67
2022-12-18T12:08:41.634Z,16.45
2022-12-18T12:13:58.224Z,17.63
2022-12-18T12:16:42.384Z,20.58
2022-12-18T12:19:20.531Z,14.63
2022-12-18T12:22:08.429Z,19.40
2022-12-18T12:25:12.508Z,20.10
2022-12-18T12:27:55.736Z,18.48
2022-12-18T12:30:33.311Z,16.02
2022-12-18T12:32:59.593Z,20.45
2022-12-18T12:35:25.870Z,15.02
2022-12-18T12:38:22.823Z,17.33
2022-12-18T12:41:02.487Z,17.20
2022-12-18T12:43:51.117Z,16.15
2022-12-18T12:46:21.049Z,17.27
2022-12-18T12:48:57.851Z,19.25
2022-12-18T12:51:30.885Z,14.55
2022-12-18T12:53:58.864Z,21.08
2022-12-18T12:56:33.760Z,17.23
2022-12-18T13:01:56.102Z,15.13
2022-12-18T13:04:26.111Z,20.17
2022-12-18T13:07:02.264Z,16.35
2022-12-18T13:09:36.814Z,17.00
2022-12-18T13:12:11.785Z,18.25
2022-12-18T13:14:40.841Z,18.40
2022-12-18T13:17:23.893Z,14.13
2022-12-18T13:19:52.371Z,17.58
2022-12-18T13:22:32.364Z,15.55
2022-12-18T13:24:58.802Z,15.48
2022-12-18T13:27:43.726Z,14.40
2022-12-18T13:30:34.720Z,13.65
2022-12-18T13:33:16.302Z,14.75
2022-12-18T13:35:48.470Z,18.55
2022-12-18T13:38:27.046Z,17.05
2022-12-18T13:41:00.538Z,16.52
2022-12-18T13:43:46.935Z,15.75
2022-12-18T13:46:42.976Z,15.15
2022-12-18T13:49:15.146Z,18.00
2022-12-18T13:51:44.808Z,17.35
2022-12-18T13:54:35.888Z,14.18
2022-12-18T13:57:04.069Z,12.75
2022-12-18T13:59:40.782Z,14.85
2022-12-18T14:02:15.683Z,15.15
2022-12-18T14:07:14.909Z,14.60
2022-12-18T14:09:45.162Z,16.75
2022-12-18T14:12:21.677Z,21.33
2022-12-18T14:14:55.021Z,12.80
2022-12-18T14:17:21.867Z,13.38
2022-12-18T14:19:52.220Z,13.60
2022-12-18T14:22:27.583Z,14.85
2022-12-18T14:25:27.601Z,14.20
2022-12-18T14:28:08.657Z,13.07
2022-12-18T14:30:43.057Z,12.43
2022-12-18T14:33:09.310Z,17.30
2022-12-18T14:35:44.320Z,13.95
2022-12-18T14:38:16.607Z,16.20
2022-12-18T14:40:44.170Z,13.50
2022-12-18T14:43:13.670Z,15.43
2022-12-18T14:45:44.649Z,14.82
2022-12-18T14:48:23.354Z,13.90
2022-12-18T14:51:06.060Z,15.02
2022-12-18T14:53:50.501Z,15.50
2022-12-18T14:56:26.321Z,15.82
2022-12-18T14:59:00.859Z,14.70
2022-12-18T15:01:47.593Z,14.48
2022-12-18T15:04:25.875Z,17.80
2022-12-18T15:07:12.757Z,16.02
2022-12-18T15:09:41.665Z,15.10
2022-12-18T15:12:26.828Z,13.80
2022-12-18T15:17:23.843Z,16.42
2022-12-18T15:20:01.977Z,15.50
2022-12-18T15:22:35.403Z,17.55
2022-12-18T15:25:02.946Z,16.65
2022-12-18T15:27:37.522Z,17.05
2022-12-18T15:30:09.888Z,16.40
2022-12-18T15:32:40.910Z,14.63
2022-12-18T15:35:21.669Z,20.58
2022-12-18T15:37:48.779Z,20.20
2022-12-18T15:40:23.815Z,18.73
2022-12-18T15:42:55.095Z,17.23
2022-12-18T15:45:21.525Z,18.38
2022-12-18T15:47:50.391Z,18.05
2022-12-18T15:50:16.712Z,18.35
2022-12-18T15:52:45.892Z,15.07
2022-12-18T15:55:18.325Z,17.02
2022-12-18T15:57:44.642Z,14.90
2022-12-18T16:00:13.250Z,14.52
2022-12-18T16:02:39.734Z,22.42
2022-12-18T16:05:15.184Z,18.45
2022-12-18T16:07:41.684Z,19.23
2022-12-18T16:10:08.348Z,16.10
2022-12-18T16:12:36.653Z,16.83
2022-12-18T16:15:04.027Z,18.48
2022-12-18T16:17:30.516Z,18.30
2022-12-18T16:19:56.861Z,18.33
2022-12-18T16:22:29.269Z,16.90
2022-12-18T16:24:57.240Z,16.02
2022-12-18T16:27:24.798Z,17.73
2022-12-18T16:29:51.529Z,17.92
2022-12-18T16:32:20.718Z,16.50
2022-12-18T16:34:47.759Z,20.92
2022-12-18T16:37:15.724Z,16.67
2022-12-18T16:39:43.197Z,18.08
2022-12-18T16:42:13.938Z,22.15
2022-12-18T16:44:40.355Z,17.58
2022-12-18T16:47:06.758Z,21.38
2022-12-18T16:49:35.602Z,21.77
2022-12-18T16:52:02.458Z,23.65
2022-12-18T16:54:28.794Z,19.55
2022-12-18T16:56:55.094Z,17.63
2022-12-18T16:59:21.493Z,20.95
2022-12-18T17:01:48.454Z,20.63
2022-12-18T17:04:15.317Z,21.70
2022-12-18T17:06:45.177Z,21.80
2022-12-18T17:09:14.153Z,20.70
2022-12-18T17:11:40.863Z,22.88
2022-12-18T17:14:13.918Z,22.50
2022-12-18T17:16:40.328Z,22.83
2022-12-18T17:19:08.791Z,21.02
2022-12-18T17:21:38.519Z,22.65
2022-12-18T17:24:06.855Z,23.30
2022-12-18T17:26:33.153Z,22.73
2022-12-18T17:29:00.076Z,23.17
2022-12-18T17:31:29.552Z,23.10
2022-12-18T17:33:57.141Z,22.25
2022-12-18T17:36:24.168Z,21.95
2022-12-18T17:38:55.695Z,21.48
2022-12-18T17:41:22.444Z,22.60
2022-12-18T17:44:06.631Z,21.40
2022-12-18T17:46:34.209Z,20.48
2022-12-18T17:49:02.319Z,23.92
2022-12-18T17:51:30.567Z,22.10
2022-12-18T17:53:56.885Z,24.88
2022-12-18T17:56:24.793Z,24.50
2022-12-18T17:58:51.656Z,24.58
2022-12-18T18:01:21.496Z,25.25
2022-12-18T18:03:49.222Z,23.08
2022-12-18T18:06:19.394Z,22.85
2022-12-18T18:08:45.761Z,26.77
2022-12-18T18:11:15.090Z,25.45
2022-12-18T18:13:46.592Z,27.38
2022-12-18T18:16:13.694Z,26.88
2022-12-18T18:18:40.020Z,25.48
2022-12-18T18:21:08.333Z,22.67
2022-12-18T18:23:35.648Z,25.35
2022-12-18T18:26:04.364Z,23.35
2022-12-18T18:28:30.872Z,26.70
2022-12-18T18:30:57.333Z,24.25
2022-12-18T18:33:24.182Z,23.60
2022-12-18T18:35:54.572Z,25.80
2022-12-18T18:38:21.293Z,28.08
2022-12-18T18:40:47.628Z,24.88
2022-12-18T18:43:13.966Z,24.13
2022-12-18T18:45:40.335Z,26.75
2022-12-18T18:48:08.487Z,30.55
2022-12-18T18:50:34.799Z,32.85
2022-12-18T18:53:01.093Z,27.95
2022-12-18T18:55:27.449Z,28.88
2022-12-18T18:57:53.793Z,25.38
2022-12-18T19:00:20.324Z,28.38
2022-12-18T19:02:47.719Z,31.38
2022-12-18T19:05:14.127Z,27.83
2022-12-18T19:07:40.454Z,29.77
2022-12-18T19:10:07.546Z,33.72
2022-12-18T19:12:34.632Z,28.95
2022-12-18T19:15:03.581Z,36.47
2022-12-18T19:17:31.602Z,29.65
2022-12-18T19:19:58.265Z,32.20
2022-12-18T19:22:24.714Z,33.78
2022-12-18T19:24:51.081Z,31.08
2022-12-18T19:27:17.386Z,33.85
2022-12-18T19:29:43.782Z,31.05
2022-12-18T19:32:10.199Z,35.50
2022-12-18T19:34:36.653Z,34.05
2022-12-18T19:37:03.539Z,34.63
2022-12-18T19:39:29.988Z,34.50
2022-12-18T19:41:56.496Z,38.03
2022-12-18T19:44:22.838Z,36.53
2022-12-18T19:46:52.013Z,36.60
2022-12-18T19:49:18.495Z,38.00
2022-12-18T19:51:45.547Z,37.65
2022-12-18T19:54:17.249Z,36.00
2022-12-18T19:56:44.146Z,41.28
2022-12-18T19:59:10.693Z,37.30
2022-12-18T20:01:37.232Z,35.78
2022-12-18T20:04:04.121Z,41.65
2022-12-18T20:06:47.578Z,38.90
2022-12-18T20:09:14.204Z,41.40
2022-12-18T20:11:50.628Z,43.95
2022-12-18T20:14:19.663Z,38.15
2022-12-18T20:16:50.761Z,40.90
2022-12-18T20:19:18.047Z,41.90
2022-12-18T20:21:44.501Z,43.67
2022-12-18T20:24:10.917Z,40.35
2022-12-18T20:26:37.491Z,41.38
2022-12-18T20:29:04.571Z,43.15
2022-12-18T20:31:31.042Z,40.20
2022-12-18T20:34:00.213Z,43.15
2022-12-18T20:36:28.330Z,45.85
2022-12-18T20:38:58.062Z,42.80
2022-12-18T20:41:25.761Z,46.63
2022-12-18T20:43:53.680Z,42.85
2022-12-18T20:46:24.022Z,43.22
2022-12-18T20:49:09.343Z,42.70
2022-12-18T20:51:39.983Z,42.17
2022-12-18T20:54:11.518Z,41.30
2022-12-18T20:56:41.728Z,42.70
2022-12-18T20:59:17.847Z,41.83
2022-12-18T21:01:45.349Z,45.17
2022-12-18T21:04:15.196Z,49.38
2022-12-18T21:06:49.443Z,46.85
2022-12-18T21:09:18.666Z,45.85
2022-12-18T21:11:45.020Z,43.22
2022-12-18T21:14:17.056Z,45.88
2022-12-18T21:16:44.121Z,43.80
2022-12-18T21:19:15.449Z,42.85
2022-12-18T21:21:42.458Z,48.92
2022-12-18T21:24:10.126Z,43.67
2022-12-18T21:26:41.954Z,44.75
2022-12-18T21:29:17.457Z,50.35
2022-12-18T21:31:44.540Z,44.67
2022-12-18T21:34:19.258Z,40.78
2022-12-18T21:36:46.507Z,49.42
2022-12-18T21:39:13.649Z,44.17
2022-12-18T21:41:42.291Z,46.70
2022-12-18T21:44:12.628Z,44.90
2022-12-18T21:46:41.880Z,49.10
2022-12-18T21:49:09.605Z,45.20
2022-12-18T21:51:36.923Z,49.80
2022-12-18T21:54:04.040Z,46.17
2022-12-18T21:56:43.595Z,46.95
2022-12-18T21:59:10.211Z,48.92
2022-12-18T22:01:37.580Z,47.25
2022-12-18T22:04:04.345Z,47.63
2022-12-18T22:06:30.752Z,54.15
2022-12-18T22:08:57.075Z,49.33
2022-12-18T22:11:23.414Z,51.72
2022-12-18T22:13:49.810Z,48.97
2022-12-18T22:16:16.212Z,50.58
2022-12-18T22:18:42.555Z,49.60
2022-12-18T22:21:30.391Z,51.47
2022-12-18T22:23:59.221Z,51.63
2022-12-18T22:26:27.695Z,50.25
2022-12-18T22:28:54.385Z,47.75
2022-12-18T22:31:20.747Z,52.40
2022-12-18T22:33:47.095Z,54.60
2022-12-18T22:36:13.453Z,49.75
2022-12-18T22:38:41.349Z,51.33
2022-12-18T22:41:07.662Z,50.28
2022-12-18T22:43:33.976Z,47.75
2022-12-18T22:46:03.460Z,48.47
2022-12-18T22:48:29.875Z,53.58
2022-12-18T22:50:59.004Z,49.38
2022-12-18T22:53:26.090Z,47.00
2022-12-18T22:55:59.585Z,50.42
2022-12-18T22:58:25.885Z,49.92
2022-12-18T23:00:52.236Z,50.58
2022-12-18T23:03:18.609Z,48.53
2022-12-18T23:05:44.983Z,49.63
2022-12-18T23:08:11.288Z,48.03
2022-12-18T23:10:38.134Z,45.50
2022-12-18T23:13:04.726Z,55.72
2022-12-18T23:15:31.203Z,50.25
2022-12-18T23:17:58.481Z,52.83
2022-12-18T23:20:26.510Z,48.70
2022-12-18T23:22:53.359Z,52.50
2022-12-18T23:25:19.696Z,57.75
2022-12-18T23:27:46.023Z,56.55
2022-12-18T23:30:12.748Z,55.35
2022-12-18T23:32:39.085Z,60.75
2022-12-18T23:35:05.934Z,53.47
2022-12-18T23:37:57.469Z,58.40
2022-12-18T23:40:20.273Z,56.65
2022-12-18T23:42:46.612Z,52.72
2022-12-18T23:45:17.760Z,54.42
2022-12-18T23:47:44.624Z,62.10
2022-12-18T23:50:13.364Z,56.95
2022-12-18T23:52:40.093Z,56.33
2022-12-18T23:55:06.834Z,63.00
2022-12-18T23:57:33.151Z,59.88
2022-12-18T23:59:59.439Z,58.90
